sensor_id;sensor_type;location;lat;lon;timestamp;temperature;humidity
12632;DHT22;6381;45.748;12.106;2022-09-27T00:02:16;16.30;99.90
12632;DHT22;6381;45.748;12.106;2022-09-27T00:04:46;16.10;99.90
12632;DHT22;6381;45.748;12.106;2022-09-27T00:07:16;16.10;99.90
12632;DHT22;6381;45.748;12.106;2022-09-27T00:09:47;16.00;99.90
12632;DHT22;6381;45.748;12.106;2022-09-27T00:12:16;15.90;99.90
12632;DHT22;6381;45.748;12.106;2022-09-27T00:14:46;15.90;99.90
12632;DHT22;6381;45.748;12.106;2022-09-27T00:17:15;15.80;99.90
12632;DHT22;6381;45.748;12.106;2022-09-27T00:19:45;15.80;99.90
12632;DHT22;6381;45.748;12.106;2022-09-27T00:22:15;15.80;99.90
12632;DHT22;6381;45.748;12.106;2022-09-27T00:24:46;15.80;99.90
12632;DHT22;6381;45.748;12.106;2022-09-27T00:27:16;15.70;99.90
12632;DHT22;6381;45.748;12.106;2022-09-27T00:29:46;15.70;99.90
12632;DHT22;6381;45.748;12.106;2022-09-27T00:32:16;15.70;99.90
12632;DHT22;6381;45.748;12.106;2022-09-27T00:34:46;15.50;99.90
12632;DHT22;6381;45.748;12.106;2022-09-27T00:37:15;15.50;99.90
12632;DHT22;6381;45.748;12.106;2022-09-27T00:39:46;15.50;99.90
12632;DHT22;6381;45.748;12.106;2022-09-27T00:42:16;15.50;99.90
12632;DHT22;6381;45.748;12.106;2022-09-27T00:45:04;15.50;99.90
12632;DHT22;6381;45.748;12.106;2022-09-27T00:47:39;15.60;99.90
12632;DHT22;6381;45.748;12.106;2022-09-27T00:50:22;15.50;99.90
12632;DHT22;6381;45.748;12.106;2022-09-27T00:53:03;15.60;99.90
12632;DHT22;6381;45.748;12.106;2022-09-27T00:55:39;15.60;99.90
12632;DHT22;6381;45.748;12.106;2022-09-27T00:58:11;15.70;99.90
12632;DHT22;6381;45.748;12.106;2022-09-27T01:00:44;15.70;99.90
12632;DHT22;6381;45.748;12.106;2022-09-27T01:03:22;15.80;99.90
12632;DHT22;6381;45.748;12.106;2022-09-27T01:05:53;15.70;99.90
12632;DHT22;6381;45.748;12.106;2022-09-27T01:08:22;15.70;99.90
12632;DHT22;6381;45.748;12.106;2022-09-27T01:11:04;15.70;99.90
12632;DHT22;6381;45.748;12.106;2022-09-27T01:13:42;15.70;99.90
12632;DHT22;6381;45.748;12.106;2022-09-27T01:16:20;15.70;99.90
12632;DHT22;6381;45.748;12.106;2022-09-27T01:19:03;15.70;99.90
12632;DHT22;6381;45.748;12.106;2022-09-27T01:21:44;15.80;99.90
12632;DHT22;6381;45.748;12.106;2022-09-27T01:24:43;15.70;99.90
12632;DHT22;6381;45.748;12.106;2022-09-27T01:30:32;15.50;99.90
12632;DHT22;6381;45.748;12.106;2022-09-27T01:33:13;15.60;99.90
12632;DHT22;6381;45.748;12.106;2022-09-27T01:35:54;15.50;99.90
12632;DHT22;6381;45.748;12.106;2022-09-27T01:38:33;15.50;99.90
12632;DHT22;6381;45.748;12.106;2022-09-27T01:41:16;15.50;99.90
12632;DHT22;6381;45.748;12.106;2022-09-27T01:44:22;15.60;99.90
12632;DHT22;6381;45.748;12.106;2022-09-27T01:47:02;15.60;99.90
12632;DHT22;6381;45.748;12.106;2022-09-27T01:49:54;15.50;99.90
12632;DHT22;6381;45.748;12.106;2022-09-27T01:52:31;15.30;99.90
12632;DHT22;6381;45.748;12.106;2022-09-27T01:55:05;15.40;99.90
12632;DHT22;6381;45.748;12.106;2022-09-27T01:57:59;15.40;99.90
12632;DHT22;6381;45.748;12.106;2022-09-27T02:00:32;15.50;99.90
12632;DHT22;6381;45.748;12.106;2022-09-27T02:03:09;15.40;99.90
12632;DHT22;6381;45.748;12.106;2022-09-27T02:05:42;15.40;99.90
12632;DHT22;6381;45.748;12.106;2022-09-27T02:08:33;15.40;99.90
12632;DHT22;6381;45.748;12.106;2022-09-27T02:11:12;15.50;99.90
12632;DHT22;6381;45.748;12.106;2022-09-27T02:13:53;15.50;99.90
12632;DHT22;6381;45.748;12.106;2022-09-27T02:16:44;15.20;99.90
12632;DHT22;6381;45.748;12.106;2022-09-27T02:19:31;15.20;99.90
12632;DHT22;6381;45.748;12.106;2022-09-27T02:22:10;15.30;99.90
12632;DHT22;6381;45.748;12.106;2022-09-27T02:24:45;15.30;99.90
12632;DHT22;6381;45.748;12.106;2022-09-27T02:27:23;15.30;99.90
12632;DHT22;6381;45.748;12.106;2022-09-27T02:29:59;15.30;99.90
12632;DHT22;6381;45.748;12.106;2022-09-27T02:32:31;15.40;99.90
12632;DHT22;6381;45.748;12.106;2022-09-27T02:35:06;15.30;99.90
12632;DHT22;6381;45.748;12.106;2022-09-27T02:37:37;15.30;99.90
12632;DHT22;6381;45.748;12.106;2022-09-27T02:40:07;15.30;99.90
12632;DHT22;6381;45.748;12.106;2022-09-27T02:42:37;15.30;99.90
12632;DHT22;6381;45.748;12.106;2022-09-27T02:45:08;15.30;99.90
12632;DHT22;6381;45.748;12.106;2022-09-27T02:47:52;15.30;99.90
12632;DHT22;6381;45.748;12.106;2022-09-27T02:50:56;15.20;99.90
12632;DHT22;6381;45.748;12.106;2022-09-27T02:53:57;15.20;99.90
12632;DHT22;6381;45.748;12.106;2022-09-27T02:57:16;15.10;99.90
12632;DHT22;6381;45.748;12.106;2022-09-27T03:00:15;15.10;99.90
12632;DHT22;6381;45.748;12.106;2022-09-27T03:03:13;15.10;99.90
12632;DHT22;6381;45.748;12.106;2022-09-27T03:06:01;15.20;99.90
12632;DHT22;6381;45.748;12.106;2022-09-27T03:08:32;15.20;99.90
12632;DHT22;6381;45.748;12.106;2022-09-27T03:11:02;15.20;99.90
12632;DHT22;6381;45.748;12.106;2022-09-27T03:13:32;15.30;99.90
12632;DHT22;6381;45.748;12.106;2022-09-27T03:16:23;15.10;99.90
12632;DHT22;6381;45.748;12.106;2022-09-27T03:19:16;15.30;99.90
12632;DHT22;6381;45.748;12.106;2022-09-27T03:22:05;15.20;99.90
12632;DHT22;6381;45.748;12.106;2022-09-27T03:24:35;15.30;99.90
12632;DHT22;6381;45.748;12.106;2022-09-27T03:27:05;15.20;99.90
12632;DHT22;6381;45.748;12.106;2022-09-27T03:29:35;15.20;99.90
12632;DHT22;6381;45.748;12.106;2022-09-27T03:32:07;15.00;99.90
12632;DHT22;6381;45.748;12.106;2022-09-27T03:35:02;15.00;99.90
12632;DHT22;6381;45.748;12.106;2022-09-27T03:37:34;15.20;99.90
12632;DHT22;6381;45.748;12.106;2022-09-27T03:40:04;15.20;99.90
12632;DHT22;6381;45.748;12.106;2022-09-27T03:42:34;15.10;99.90
12632;DHT22;6381;45.748;12.106;2022-09-27T03:45:05;15.20;99.90
12632;DHT22;6381;45.748;12.106;2022-09-27T03:47:39;15.30;99.90
12632;DHT22;6381;45.748;12.106;2022-09-27T03:50:11;15.30;99.90
12632;DHT22;6381;45.748;12.106;2022-09-27T03:52:43;15.30;99.90
12632;DHT22;6381;45.748;12.106;2022-09-27T03:55:13;15.20;99.90
12632;DHT22;6381;45.748;12.106;2022-09-27T03:57:44;15.20;99.90
12632;DHT22;6381;45.748;12.106;2022-09-27T04:00:16;15.40;99.90
12632;DHT22;6381;45.748;12.106;2022-09-27T04:02:46;15.40;99.90
12632;DHT22;6381;45.748;12.106;2022-09-27T04:05:22;15.40;99.90
12632;DHT22;6381;45.748;12.106;2022-09-27T04:08:14;15.40;99.90
12632;DHT22;6381;45.748;12.106;2022-09-27T04:10:43;15.50;99.90
12632;DHT22;6381;45.748;12.106;2022-09-27T04:13:13;15.40;99.90
12632;DHT22;6381;45.748;12.106;2022-09-27T04:15:50;15.30;99.90
12632;DHT22;6381;45.748;12.106;2022-09-27T04:18:36;18.10;99.90
12632;DHT22;6381;45.748;12.106;2022-09-27T04:21:12;15.40;99.90
12632;DHT22;6381;45.748;12.106;2022-09-27T04:23:52;15.60;99.90
12632;DHT22;6381;45.748;12.106;2022-09-27T04:26:23;15.60;99.90
12632;DHT22;6381;45.748;12.106;2022-09-27T04:29:04;15.70;99.90
12632;DHT22;6381;45.748;12.106;2022-09-27T04:31:40;15.80;99.90
12632;DHT22;6381;45.748;12.106;2022-09-27T04:34:13;15.60;99.90
12632;DHT22;6381;45.748;12.106;2022-09-27T04:36:45;15.40;99.90
12632;DHT22;6381;45.748;12.106;2022-09-27T04:39:19;15.40;99.90
12632;DHT22;6381;45.748;12.106;2022-09-27T04:41:52;15.30;99.90
12632;DHT22;6381;45.748;12.106;2022-09-27T04:44:21;15.40;99.90
12632;DHT22;6381;45.748;12.106;2022-09-27T04:46:51;15.40;99.90
12632;DHT22;6381;45.748;12.106;2022-09-27T04:49:21;15.30;99.90
12632;DHT22;6381;45.748;12.106;2022-09-27T04:51:50;15.30;99.90
12632;DHT22;6381;45.748;12.106;2022-09-27T04:54:21;15.20;99.90
12632;DHT22;6381;45.748;12.106;2022-09-27T04:57:03;15.20;99.90
12632;DHT22;6381;45.748;12.106;2022-09-27T04:59:33;15.20;99.90
12632;DHT22;6381;45.748;12.106;2022-09-27T05:02:03;15.30;99.90
12632;DHT22;6381;45.748;12.106;2022-09-27T05:05:08;15.40;99.90
12632;DHT22;6381;45.748;12.106;2022-09-27T05:07:42;15.40;99.90
12632;DHT22;6381;45.748;12.106;2022-09-27T05:10:25;15.40;99.90
12632;DHT22;6381;45.748;12.106;2022-09-27T05:12:55;15.60;99.90
12632;DHT22;6381;45.748;12.106;2022-09-27T05:15:24;15.60;99.90
12632;DHT22;6381;45.748;12.106;2022-09-27T05:18:12;15.60;99.90
12632;DHT22;6381;45.748;12.106;2022-09-27T05:21:01;15.60;99.90
12632;DHT22;6381;45.748;12.106;2022-09-27T05:23:37;15.70;99.90
12632;DHT22;6381;45.748;12.106;2022-09-27T05:26:12;15.70;99.90
12632;DHT22;6381;45.748;12.106;2022-09-27T05:28:42;15.70;99.90
12632;DHT22;6381;45.748;12.106;2022-09-27T05:31:15;15.70;99.90
12632;DHT22;6381;45.748;12.106;2022-09-27T05:33:47;15.70;99.90
12632;DHT22;6381;45.748;12.106;2022-09-27T05:36:37;15.70;99.90
12632;DHT22;6381;45.748;12.106;2022-09-27T05:39:07;15.70;99.90
12632;DHT22;6381;45.748;12.106;2022-09-27T05:41:39;15.70;99.90
12632;DHT22;6381;45.748;12.106;2022-09-27T05:44:09;15.70;99.90
12632;DHT22;6381;45.748;12.106;2022-09-27T05:46:47;15.70;99.90
12632;DHT22;6381;45.748;12.106;2022-09-27T05:49:17;15.60;99.90
12632;DHT22;6381;45.748;12.106;2022-09-27T05:51:47;15.70;99.90
12632;DHT22;6381;45.748;12.106;2022-09-27T05:54:16;15.70;99.90
12632;DHT22;6381;45.748;12.106;2022-09-27T05:56:48;15.80;99.90
12632;DHT22;6381;45.748;12.106;2022-09-27T05:59:38;15.80;99.90
12632;DHT22;6381;45.748;12.106;2022-09-27T06:02:31;15.90;99.90
12632;DHT22;6381;45.748;12.106;2022-09-27T06:05:22;15.90;99.90
12632;DHT22;6381;45.748;12.106;2022-09-27T06:08:11;15.90;99.90
12632;DHT22;6381;45.748;12.106;2022-09-27T06:10:45;15.90;99.90
12632;DHT22;6381;45.748;12.106;2022-09-27T06:13:17;15.90;99.90
12632;DHT22;6381;45.748;12.106;2022-09-27T06:15:46;15.90;99.90
12632;DHT22;6381;45.748;12.106;2022-09-27T06:18:17;15.90;99.90
12632;DHT22;6381;45.748;12.106;2022-09-27T06:20:49;16.00;99.90
12632;DHT22;6381;45.748;12.106;2022-09-27T06:23:21;16.00;99.90
12632;DHT22;6381;45.748;12.106;2022-09-27T06:25:51;16.10;99.90
12632;DHT22;6381;45.748;12.106;2022-09-27T06:28:43;16.10;99.90
12632;DHT22;6381;45.748;12.106;2022-09-27T06:31:14;16.20;99.90
12632;DHT22;6381;45.748;12.106;2022-09-27T06:33:50;16.20;99.90
12632;DHT22;6381;45.748;12.106;2022-09-27T06:36:19;16.30;99.90
12632;DHT22;6381;45.748;12.106;2022-09-27T06:38:49;16.30;99.90
12632;DHT22;6381;45.748;12.106;2022-09-27T06:41:29;16.30;99.90
12632;DHT22;6381;45.748;12.106;2022-09-27T06:44:17;16.30;99.90
12632;DHT22;6381;45.748;12.106;2022-09-27T06:47:24;16.20;99.90
12632;DHT22;6381;45.748;12.106;2022-09-27T06:50:20;16.20;99.90
12632;DHT22;6381;45.748;12.106;2022-09-27T06:52:49;16.50;99.90
12632;DHT22;6381;45.748;12.106;2022-09-27T06:55:19;16.60;99.90
12632;DHT22;6381;45.748;12.106;2022-09-27T06:57:52;16.50;99.90
12632;DHT22;6381;45.748;12.106;2022-09-27T07:00:48;16.50;99.90
12632;DHT22;6381;45.748;12.106;2022-09-27T07:03:41;16.60;99.90
12632;DHT22;6381;45.748;12.106;2022-09-27T07:06:46;16.50;99.90
12632;DHT22;6381;45.748;12.106;2022-09-27T07:09:22;16.40;99.90
12632;DHT22;6381;45.748;12.106;2022-09-27T07:11:52;16.40;99.90
12632;DHT22;6381;45.748;12.106;2022-09-27T07:14:22;16.40;99.90
12632;DHT22;6381;45.748;12.106;2022-09-27T07:16:56;16.50;99.90
12632;DHT22;6381;45.748;12.106;2022-09-27T07:19:30;16.60;99.90
12632;DHT22;6381;45.748;12.106;2022-09-27T07:22:01;16.60;99.90
12632;DHT22;6381;45.748;12.106;2022-09-27T07:24:31;16.60;99.90
12632;DHT22;6381;45.748;12.106;2022-09-27T07:27:01;16.60;99.90
12632;DHT22;6381;45.748;12.106;2022-09-27T07:29:32;16.60;99.90
12632;DHT22;6381;45.748;12.106;2022-09-27T07:32:03;16.70;99.90
12632;DHT22;6381;45.748;12.106;2022-09-27T07:34:33;16.80;99.90
12632;DHT22;6381;45.748;12.106;2022-09-27T07:37:03;16.70;99.90
12632;DHT22;6381;45.748;12.106;2022-09-27T07:39:38;16.80;99.90
12632;DHT22;6381;45.748;12.106;2022-09-27T07:42:07;16.70;99.90
12632;DHT22;6381;45.748;12.106;2022-09-27T07:44:42;17.20;99.90
12632;DHT22;6381;45.748;12.106;2022-09-27T07:47:29;17.40;99.90
12632;DHT22;6381;45.748;12.106;2022-09-27T07:50:04;17.10;99.90
12632;DHT22;6381;45.748;12.106;2022-09-27T07:52:53;17.20;99.90
12632;DHT22;6381;45.748;12.106;2022-09-27T07:55:50;17.40;99.90
12632;DHT22;6381;45.748;12.106;2022-09-27T07:58:23;17.40;99.90
12632;DHT22;6381;45.748;12.106;2022-09-27T08:00:58;17.40;99.90
12632;DHT22;6381;45.748;12.106;2022-09-27T08:03:31;17.30;99.90
12632;DHT22;6381;45.748;12.106;2022-09-27T08:06:02;17.30;99.90
12632;DHT22;6381;45.748;12.106;2022-09-27T08:08:32;17.20;99.90
12632;DHT22;6381;45.748;12.106;2022-09-27T08:11:10;17.10;99.90
12632;DHT22;6381;45.748;12.106;2022-09-27T08:13:44;17.20;99.90
12632;DHT22;6381;45.748;12.106;2022-09-27T08:16:14;17.20;99.90
12632;DHT22;6381;45.748;12.106;2022-09-27T08:19:05;17.10;99.90
12632;DHT22;6381;45.748;12.106;2022-09-27T08:21:41;17.20;99.90
12632;DHT22;6381;45.748;12.106;2022-09-27T08:24:14;17.30;99.90
12632;DHT22;6381;45.748;12.106;2022-09-27T08:27:13;17.30;99.90
12632;DHT22;6381;45.748;12.106;2022-09-27T08:30:06;17.50;99.90
12632;DHT22;6381;45.748;12.106;2022-09-27T08:32:36;17.70;99.90
12632;DHT22;6381;45.748;12.106;2022-09-27T08:35:08;17.80;99.90
12632;DHT22;6381;45.748;12.106;2022-09-27T08:37:41;17.80;99.90
12632;DHT22;6381;45.748;12.106;2022-09-27T08:40:14;17.90;99.90
12632;DHT22;6381;45.748;12.106;2022-09-27T08:42:49;18.10;99.90
12632;DHT22;6381;45.748;12.106;2022-09-27T08:45:25;18.20;99.90
12632;DHT22;6381;45.748;12.106;2022-09-27T08:47:59;18.50;99.90
12632;DHT22;6381;45.748;12.106;2022-09-27T08:50:33;18.30;99.90
12632;DHT22;6381;45.748;12.106;2022-09-27T08:53:19;18.10;99.90
12632;DHT22;6381;45.748;12.106;2022-09-27T08:55:52;17.70;99.90
12632;DHT22;6381;45.748;12.106;2022-09-27T08:58:31;17.90;99.90
12632;DHT22;6381;45.748;12.106;2022-09-27T09:01:12;18.30;99.90
12632;DHT22;6381;45.748;12.106;2022-09-27T09:03:54;18.60;99.90
12632;DHT22;6381;45.748;12.106;2022-09-27T09:06:28;18.70;99.90
12632;DHT22;6381;45.748;12.106;2022-09-27T09:09:10;18.70;99.90
12632;DHT22;6381;45.748;12.106;2022-09-27T09:12:07;18.90;99.90
12632;DHT22;6381;45.748;12.106;2022-09-27T09:15:17;19.00;99.90
12632;DHT22;6381;45.748;12.106;2022-09-27T09:18:13;18.90;99.90
12632;DHT22;6381;45.748;12.106;2022-09-27T09:20:57;19.10;99.90
12632;DHT22;6381;45.748;12.106;2022-09-27T09:26:41;19.10;99.90
12632;DHT22;6381;45.748;12.106;2022-09-27T09:29:22;19.50;99.90
12632;DHT22;6381;45.748;12.106;2022-09-27T09:32:00;19.60;99.90
12632;DHT22;6381;45.748;12.106;2022-09-27T09:34:34;19.30;99.90
12632;DHT22;6381;45.748;12.106;2022-09-27T09:37:14;19.50;99.90
12632;DHT22;6381;45.748;12.106;2022-09-27T09:39:50;19.80;99.90
12632;DHT22;6381;45.748;12.106;2022-09-27T09:42:24;19.00;99.90
12632;DHT22;6381;45.748;12.106;2022-09-27T09:45:00;19.20;99.90
12632;DHT22;6381;45.748;12.106;2022-09-27T09:47:35;19.20;99.90
12632;DHT22;6381;45.748;12.106;2022-09-27T09:50:16;19.40;99.90
12632;DHT22;6381;45.748;12.106;2022-09-27T09:52:51;19.60;99.90
12632;DHT22;6381;45.748;12.106;2022-09-27T09:55:27;19.90;99.90
12632;DHT22;6381;45.748;12.106;2022-09-27T09:58:04;19.70;99.90
12632;DHT22;6381;45.748;12.106;2022-09-27T10:00:44;19.40;99.90
12632;DHT22;6381;45.748;12.106;2022-09-27T10:03:15;19.40;99.90
12632;DHT22;6381;45.748;12.106;2022-09-27T10:05:45;19.20;99.90
12632;DHT22;6381;45.748;12.106;2022-09-27T10:08:18;19.40;99.90
12632;DHT22;6381;45.748;12.106;2022-09-27T10:11:00;19.40;99.90
12632;DHT22;6381;45.748;12.106;2022-09-27T10:13:52;19.90;99.90
12632;DHT22;6381;45.748;12.106;2022-09-27T10:16:25;20.20;99.90
12632;DHT22;6381;45.748;12.106;2022-09-27T10:18:59;19.80;99.90
12632;DHT22;6381;45.748;12.106;2022-09-27T10:21:32;19.80;99.90
12632;DHT22;6381;45.748;12.106;2022-09-27T10:24:09;19.50;99.90
12632;DHT22;6381;45.748;12.106;2022-09-27T10:27:12;19.40;99.90
12632;DHT22;6381;45.748;12.106;2022-09-27T10:29:42;19.60;99.90
12632;DHT22;6381;45.748;12.106;2022-09-27T10:32:23;20.00;99.90
12632;DHT22;6381;45.748;12.106;2022-09-27T10:35:30;20.50;98.70
12632;DHT22;6381;45.748;12.106;2022-09-27T10:38:24;20.90;98.20
12632;DHT22;6381;45.748;12.106;2022-09-27T10:41:16;21.20;97.60
12632;DHT22;6381;45.748;12.106;2022-09-27T10:43:55;21.60;96.30
12632;DHT22;6381;45.748;12.106;2022-09-27T10:46:30;21.70;97.10
12632;DHT22;6381;45.748;12.106;2022-09-27T10:49:24;21.70;95.00
12632;DHT22;6381;45.748;12.106;2022-09-27T10:51:59;20.90;95.70
12632;DHT22;6381;45.748;12.106;2022-09-27T10:54:32;20.70;95.30
12632;DHT22;6381;45.748;12.106;2022-09-27T10:57:05;20.30;95.60
12632;DHT22;6381;45.748;12.106;2022-09-27T10:59:39;20.70;92.90
12632;DHT22;6381;45.748;12.106;2022-09-27T11:02:19;20.10;93.50
12632;DHT22;6381;45.748;12.106;2022-09-27T11:05:12;19.90;95.10
12632;DHT22;6381;45.748;12.106;2022-09-27T11:07:49;20.40;94.20
12632;DHT22;6381;45.748;12.106;2022-09-27T11:10:26;20.90;93.80
12632;DHT22;6381;45.748;12.106;2022-09-27T11:13:06;22.20;93.30
12632;DHT22;6381;45.748;12.106;2022-09-27T11:15:48;22.30;92.30
12632;DHT22;6381;45.748;12.106;2022-09-27T11:18:25;21.90;90.70
12632;DHT22;6381;45.748;12.106;2022-09-27T11:21:05;20.50;92.00
12632;DHT22;6381;45.748;12.106;2022-09-27T11:23:50;19.90;94.60
12632;DHT22;6381;45.748;12.106;2022-09-27T11:26:32;19.80;94.30
12632;DHT22;6381;45.748;12.106;2022-09-27T11:29:18;20.00;94.30
12632;DHT22;6381;45.748;12.106;2022-09-27T11:32:22;19.80;93.60
12632;DHT22;6381;45.748;12.106;2022-09-27T11:35:06;19.70;94.70
12632;DHT22;6381;45.748;12.106;2022-09-27T11:37:47;19.70;95.50
12632;DHT22;6381;45.748;12.106;2022-09-27T11:40:26;19.60;94.80
12632;DHT22;6381;45.748;12.106;2022-09-27T11:43:15;19.60;94.90
12632;DHT22;6381;45.748;12.106;2022-09-27T11:45:57;19.70;94.60
12632;DHT22;6381;45.748;12.106;2022-09-27T11:51:59;21.90;91.60
12632;DHT22;6381;45.748;12.106;2022-09-27T11:54:50;22.10;90.50
12632;DHT22;6381;45.748;12.106;2022-09-27T11:57:27;23.00;89.00
12632;DHT22;6381;45.748;12.106;2022-09-27T12:00:19;22.70;87.40
12632;DHT22;6381;45.748;12.106;2022-09-27T12:03:26;22.90;88.80
12632;DHT22;6381;45.748;12.106;2022-09-27T12:06:06;22.60;84.80
12632;DHT22;6381;45.748;12.106;2022-09-27T12:08:56;22.50;84.70
12632;DHT22;6381;45.748;12.106;2022-09-27T12:11:33;22.80;83.60
12632;DHT22;6381;45.748;12.106;2022-09-27T12:14:10;23.10;83.10
12632;DHT22;6381;45.748;12.106;2022-09-27T12:16:47;23.50;81.70
12632;DHT22;6381;45.748;12.106;2022-09-27T12:19:23;24.10;80.40
12632;DHT22;6381;45.748;12.106;2022-09-27T12:22:10;25.20;78.40
12632;DHT22;6381;45.748;12.106;2022-09-27T12:24:45;25.50;75.10
12632;DHT22;6381;45.748;12.106;2022-09-27T12:27:36;23.60;77.50
12632;DHT22;6381;45.748;12.106;2022-09-27T12:30:12;23.30;80.20
12632;DHT22;6381;45.748;12.106;2022-09-27T12:32:50;22.40;81.40
12632;DHT22;6381;45.748;12.106;2022-09-27T12:35:24;21.30;85.80
12632;DHT22;6381;45.748;12.106;2022-09-27T12:38:01;20.90;89.60
12632;DHT22;6381;45.748;12.106;2022-09-27T12:40:36;21.90;86.90
12632;DHT22;6381;45.748;12.106;2022-09-27T12:43:15;21.70;87.40
12632;DHT22;6381;45.748;12.106;2022-09-27T12:46:20;21.70;90.00
12632;DHT22;6381;45.748;12.106;2022-09-27T12:48:57;23.30;82.80
12632;DHT22;6381;45.748;12.106;2022-09-27T12:51:35;22.60;82.90
12632;DHT22;6381;45.748;12.106;2022-09-27T12:54:28;23.70;80.00
12632;DHT22;6381;45.748;12.106;2022-09-27T12:57:02;23.80;77.00
12632;DHT22;6381;45.748;12.106;2022-09-27T12:59:55;23.60;76.80
12632;DHT22;6381;45.748;12.106;2022-09-27T13:03:01;24.20;76.70
12632;DHT22;6381;45.748;12.106;2022-09-27T13:09:21;24.70;73.40
12632;DHT22;6381;45.748;12.106;2022-09-27T13:11:59;24.10;73.10
12632;DHT22;6381;45.748;12.106;2022-09-27T13:14:34;24.60;72.60
12632;DHT22;6381;45.748;12.106;2022-09-27T13:17:33;26.20;71.70
12632;DHT22;6381;45.748;12.106;2022-09-27T13:20:36;25.60;67.30
12632;DHT22;6381;45.748;12.106;2022-09-27T13:26:47;24.80;67.30
12632;DHT22;6381;45.748;12.106;2022-09-27T13:29:28;24.30;68.70
12632;DHT22;6381;45.748;12.106;2022-09-27T13:32:24;23.40;69.50
12632;DHT22;6381;45.748;12.106;2022-09-27T13:35:18;23.70;69.30
12632;DHT22;6381;45.748;12.106;2022-09-27T13:37:55;24.50;68.70
12632;DHT22;6381;45.748;12.106;2022-09-27T13:40:43;24.10;68.10
12632;DHT22;6381;45.748;12.106;2022-09-27T13:43:35;25.00;67.30
12632;DHT22;6381;45.748;12.106;2022-09-27T13:46:24;25.40;65.80
12632;DHT22;6381;45.748;12.106;2022-09-27T13:48:57;25.00;65.70
12632;DHT22;6381;45.748;12.106;2022-09-27T13:51:55;24.70;66.10
12632;DHT22;6381;45.748;12.106;2022-09-27T13:54:49;24.90;68.80
12632;DHT22;6381;45.748;12.106;2022-09-27T13:57:41;25.20;67.80
12632;DHT22;6381;45.748;12.106;2022-09-27T14:00:17;25.60;66.60
12632;DHT22;6381;45.748;12.106;2022-09-27T14:02:58;24.60;65.00
12632;DHT22;6381;45.748;12.106;2022-09-27T14:05:34;24.80;68.40
12632;DHT22;6381;45.748;12.106;2022-09-27T14:08:06;24.50;67.80
12632;DHT22;6381;45.748;12.106;2022-09-27T14:10:43;24.10;69.80
12632;DHT22;6381;45.748;12.106;2022-09-27T14:13:17;24.10;68.80
12632;DHT22;6381;45.748;12.106;2022-09-27T14:16:01;24.20;68.60
12632;DHT22;6381;45.748;12.106;2022-09-27T14:18:35;24.40;67.90
12632;DHT22;6381;45.748;12.106;2022-09-27T14:21:20;24.70;68.90
12632;DHT22;6381;45.748;12.106;2022-09-27T14:24:29;24.60;67.00
12632;DHT22;6381;45.748;12.106;2022-09-27T14:27:11;25.40;64.20
12632;DHT22;6381;45.748;12.106;2022-09-27T14:29:43;26.40;62.50
12632;DHT22;6381;45.748;12.106;2022-09-27T14:32:20;25.60;61.10
12632;DHT22;6381;45.748;12.106;2022-09-27T14:35:06;25.70;62.20
12632;DHT22;6381;45.748;12.106;2022-09-27T14:38:01;25.70;60.90
12632;DHT22;6381;45.748;12.106;2022-09-27T14:40:58;25.50;61.40
12632;DHT22;6381;45.748;12.106;2022-09-27T14:43:28;24.90;62.70
12632;DHT22;6381;45.748;12.106;2022-09-27T14:46:00;24.40;66.00
12632;DHT22;6381;45.748;12.106;2022-09-27T14:48:35;24.00;69.00
12632;DHT22;6381;45.748;12.106;2022-09-27T14:51:18;23.60;69.80
12632;DHT22;6381;45.748;12.106;2022-09-27T14:53:50;23.40;71.50
12632;DHT22;6381;45.748;12.106;2022-09-27T14:56:22;23.60;74.30
12632;DHT22;6381;45.748;12.106;2022-09-27T14:58:58;23.40;76.50
12632;DHT22;6381;45.748;12.106;2022-09-27T15:01:29;23.40;77.90
12632;DHT22;6381;45.748;12.106;2022-09-27T15:04:06;23.40;78.40
12632;DHT22;6381;45.748;12.106;2022-09-27T15:06:38;23.20;80.00
12632;DHT22;6381;45.748;12.106;2022-09-27T15:09:11;23.40;79.70
12632;DHT22;6381;45.748;12.106;2022-09-27T15:11:42;23.20;79.90
12632;DHT22;6381;45.748;12.106;2022-09-27T15:14:15;22.90;82.10
12632;DHT22;6381;45.748;12.106;2022-09-27T15:16:48;22.60;85.00
12632;DHT22;6381;45.748;12.106;2022-09-27T15:19:23;22.40;87.30
12632;DHT22;6381;45.748;12.106;2022-09-27T15:21:54;22.50;88.00
12632;DHT22;6381;45.748;12.106;2022-09-27T15:24:38;22.30;89.10
12632;DHT22;6381;45.748;12.106;2022-09-27T15:27:14;22.40;88.40
12632;DHT22;6381;45.748;12.106;2022-09-27T15:29:48;22.70;88.50
12632;DHT22;6381;45.748;12.106;2022-09-27T15:32:20;22.60;87.20
12632;DHT22;6381;45.748;12.106;2022-09-27T15:34:53;22.80;87.10
12632;DHT22;6381;45.748;12.106;2022-09-27T15:37:26;23.00;87.20
12632;DHT22;6381;45.748;12.106;2022-09-27T15:40:07;23.10;86.80
12632;DHT22;6381;45.748;12.106;2022-09-27T15:42:58;22.80;87.00
12632;DHT22;6381;45.748;12.106;2022-09-27T15:45:29;22.60;86.80
12632;DHT22;6381;45.748;12.106;2022-09-27T15:48:07;22.20;87.90
12632;DHT22;6381;45.748;12.106;2022-09-27T15:50:43;22.00;90.50
12632;DHT22;6381;45.748;12.106;2022-09-27T15:53:41;21.80;92.20
12632;DHT22;6381;45.748;12.106;2022-09-27T15:56:13;21.40;93.80
12632;DHT22;6381;45.748;12.106;2022-09-27T15:58:43;21.20;95.20
12632;DHT22;6381;45.748;12.106;2022-09-27T16:01:17;21.00;95.80
12632;DHT22;6381;45.748;12.106;2022-09-27T16:03:48;21.10;95.70
12632;DHT22;6381;45.748;12.106;2022-09-27T16:06:21;21.00;96.00
12632;DHT22;6381;45.748;12.106;2022-09-27T16:08:52;20.80;96.10
12632;DHT22;6381;45.748;12.106;2022-09-27T16:11:22;20.70;96.60
12632;DHT22;6381;45.748;12.106;2022-09-27T16:13:51;20.50;97.10
12632;DHT22;6381;45.748;12.106;2022-09-27T16:16:21;20.50;97.10
12632;DHT22;6381;45.748;12.106;2022-09-27T16:18:51;20.50;97.50
12632;DHT22;6381;45.748;12.106;2022-09-27T16:21:22;20.40;97.20
12632;DHT22;6381;45.748;12.106;2022-09-27T16:23:52;20.30;97.20
12632;DHT22;6381;45.748;12.106;2022-09-27T16:26:21;20.40;97.40
12632;DHT22;6381;45.748;12.106;2022-09-27T16:28:51;20.40;97.50
12632;DHT22;6381;45.748;12.106;2022-09-27T16:31:21;20.30;97.60
12632;DHT22;6381;45.748;12.106;2022-09-27T16:33:50;20.20;97.90
12632;DHT22;6381;45.748;12.106;2022-09-27T16:36:21;20.10;98.20
12632;DHT22;6381;45.748;12.106;2022-09-27T16:38:51;19.80;98.60
12632;DHT22;6381;45.748;12.106;2022-09-27T16:41:21;19.80;98.80
12632;DHT22;6381;45.748;12.106;2022-09-27T16:43:51;19.50;99.40
12632;DHT22;6381;45.748;12.106;2022-09-27T16:46:21;19.30;99.80
12632;DHT22;6381;45.748;12.106;2022-09-27T16:48:50;19.20;99.90
12632;DHT22;6381;45.748;12.106;2022-09-27T16:51:22;19.10;99.60
12632;DHT22;6381;45.748;12.106;2022-09-27T16:54:09;19.10;99.90
12632;DHT22;6381;45.748;12.106;2022-09-27T16:56:42;18.90;99.90
12632;DHT22;6381;45.748;12.106;2022-09-27T16:59:12;18.70;99.00